Time;durP1;ratioP1;P1;durP2;ratioP2;P2;SDS_P1;SDS_P2;PMS_P1;PMS_P2;Temp;Humidity;BMP_temperature;BMP_pressure;BME280_temperature;BME280_humidity;BME280_pressure;Samples;Min_cycle;Max_cycle;Signal;HPM_P1;HPM_P2
2022/04/21 00:00:22;;;;;;;4.53;2.53;;;;;;;;;;5035664;28;20049;-75
2022/04/21 00:02:49;;;;;;;7.65;3.10;;;;;;;;;;5028487;28;20573;-75
2022/04/21 00:05:17;;;;;;;5.18;3.47;;;;;;;;;;5029177;28;20049;-75
2022/04/21 00:07:45;;;;;;;4.65;2.90;;;;;;;;;;5028249;28;20045;-75
2022/04/21 00:10:12;;;;;;;6.93;3.22;;;;;;;;;;5029866;28;20056;-75
2022/04/21 00:12:40;;;;;;;5.05;3.33;;;;;;;;;;5034850;28;20527;-75
2022/04/21 00:15:08;;;;;;;6.07;3.35;;;;;;;;;;5036703;28;20049;-75
2022/04/21 00:17:36;;;;;;;6.25;3.30;;;;;;;;;;5029389;28;20049;-75
2022/04/21 00:20:04;;;;;;;5.07;3.40;;;;;;;;;;5031446;28;20052;-75
2022/04/21 00:25:26;;;;;;;4.82;3.30;;;;;;;;;;4994739;28;20049;-75
2022/04/21 00:27:54;;;;;;;6.03;3.70;;;;;;;;;;5028874;28;20052;-75
2022/04/21 00:30:21;;;;;;;7.78;4.47;;;;;;;;;;5033687;28;20056;-75
2022/04/21 00:32:50;;;;;;;6.20;4.10;;;;;;;;;;5030854;28;20124;-75
2022/04/21 00:35:18;;;;;;;9.73;4.82;;;;;;;;;;5032397;28;20057;-75
2022/04/21 00:37:50;;;;;;;7.90;4.40;;;;;;;;;;5035661;28;20153;-75
2022/04/21 00:40:18;;;;;;;10.95;5.57;;;;;;;;;;5030070;28;20053;-75
2022/04/21 00:42:45;;;;;;;8.98;6.18;;;;;;;;;;5031139;28;20732;-75
2022/04/21 00:45:13;;;;;;;9.65;5.88;;;;;;;;;;5029939;28;20132;-75
2022/04/21 00:47:43;;;;;;;10.50;6.07;;;;;;;;;;5035034;28;20072;-75
2022/04/21 00:50:15;;;;;;;14.05;7.47;;;;;;;;;;5031512;28;20068;-75
2022/04/21 00:52:42;;;;;;;14.00;7.32;;;;;;;;;;5034426;28;20133;-75
2022/04/21 00:55:10;;;;;;;11.63;8.05;;;;;;;;;;5032460;28;20048;-75
2022/04/21 00:57:38;;;;;;;15.32;8.65;;;;;;;;;;5034050;28;20156;-75
2022/04/21 01:00:08;;;;;;;14.13;8.63;;;;;;;;;;5037293;28;20108;-75
2022/04/21 01:02:46;;;;;;;16.30;10.02;;;;;;;;;;5034955;28;20056;-76
2022/04/21 01:05:15;;;;;;;18.23;9.82;;;;;;;;;;5035675;28;20811;-75
2022/04/21 01:07:43;;;;;;;15.70;9.55;;;;;;;;;;5035044;28;20049;-75
2022/04/21 01:10:11;;;;;;;13.27;9.40;;;;;;;;;;5036810;28;20052;-75
2022/04/21 01:12:38;;;;;;;15.45;9.60;;;;;;;;;;5037017;28;20052;-75
2022/04/21 01:15:06;;;;;;;15.80;9.63;;;;;;;;;;5037350;28;20084;-75
2022/04/21 01:17:34;;;;;;;16.35;10.70;;;;;;;;;;5031819;28;20064;-75
2022/04/21 01:20:01;;;;;;;19.63;11.38;;;;;;;;;;5037104;28;20049;-75
2022/04/21 01:22:30;;;;;;;20.00;11.25;;;;;;;;;;5033125;28;20408;-75
2022/04/21 01:24:58;;;;;;;15.68;10.65;;;;;;;;;;5037049;28;20648;-75
2022/04/21 01:27:27;;;;;;;16.00;10.50;;;;;;;;;;5035119;28;20053;-75
2022/04/21 01:29:54;;;;;;;14.98;10.57;;;;;;;;;;5039671;28;20057;-75
2022/04/21 01:32:22;;;;;;;16.60;10.85;;;;;;;;;;5034867;28;20045;-75
2022/04/21 01:34:49;;;;;;;17.30;10.57;;;;;;;;;;5037229;28;20059;-75
2022/04/21 01:42:50;;;;;;;18.33;11.38;;;;;;;;;;5033918;28;20060;-75
2022/04/21 01:45:17;;;;;;;18.33;11.32;;;;;;;;;;5041157;28;20048;-75
2022/04/21 01:47:44;;;;;;;16.65;11.48;;;;;;;;;;5037694;28;20475;-75
2022/04/21 01:50:14;;;;;;;16.00;11.80;;;;;;;;;;5033697;28;20058;-75
2022/04/21 01:52:41;;;;;;;16.80;11.32;;;;;;;;;;5037749;28;20370;-75
2022/04/21 01:55:10;;;;;;;19.42;11.98;;;;;;;;;;5039074;28;20076;-75
2022/04/21 01:57:37;;;;;;;16.17;10.73;;;;;;;;;;5039194;28;20764;-75
2022/04/21 02:00:05;;;;;;;20.35;12.20;;;;;;;;;;5045063;28;20048;-75
2022/04/21 02:02:32;;;;;;;17.85;11.18;;;;;;;;;;5039492;28;20049;-75
2022/04/21 02:05:00;;;;;;;18.90;12.23;;;;;;;;;;5034300;28;20050;-75
2022/04/21 02:07:28;;;;;;;17.15;12.07;;;;;;;;;;5042611;28;20056;-75
2022/04/21 02:09:55;;;;;;;17.40;11.77;;;;;;;;;;5034173;28;20053;-75
2022/04/21 02:12:24;;;;;;;17.42;11.90;;;;;;;;;;5037332;28;20126;-75
2022/04/21 02:14:52;;;;;;;21.35;12.95;;;;;;;;;;5034338;28;20053;-75
2022/04/21 02:17:19;;;;;;;19.77;12.63;;;;;;;;;;5035367;28;20056;-75
2022/04/21 02:19:46;;;;;;;21.80;12.32;;;;;;;;;;5040575;28;20073;-75
2022/04/21 02:22:14;;;;;;;17.95;11.70;;;;;;;;;;5036181;28;20135;-75
2022/04/21 02:24:41;;;;;;;19.92;12.27;;;;;;;;;;5033981;28;20060;-76
2022/04/21 02:27:08;;;;;;;22.65;13.10;;;;;;;;;;5042941;28;20523;-75
2022/04/21 02:29:37;;;;;;;21.15;13.38;;;;;;;;;;5040884;28;20060;-75
2022/04/21 02:32:04;;;;;;;27.15;13.10;;;;;;;;;;5036220;28;20045;-75
2022/04/21 02:34:32;;;;;;;18.70;12.63;;;;;;;;;;5039501;28;20057;-75
2022/04/21 02:36:59;;;;;;;20.35;13.23;;;;;;;;;;5039727;28;20052;-75
2022/04/21 02:39:27;;;;;;;23.23;12.70;;;;;;;;;;5034338;28;20527;-75
2022/04/21 02:41:54;;;;;;;20.23;13.02;;;;;;;;;;5030488;28;20057;-75
2022/04/21 02:44:21;;;;;;;17.73;12.10;;;;;;;;;;5037019;28;21356;-75
2022/04/21 02:46:50;;;;;;;21.48;14.13;;;;;;;;;;5033742;28;20053;-75
2022/04/21 02:49:17;;;;;;;19.13;12.70;;;;;;;;;;5032642;28;20064;-75
2022/04/21 02:51:45;;;;;;;20.17;13.32;;;;;;;;;;5034782;28;20076;-75
2022/04/21 02:59:42;;;;;;;24.90;12.98;;;;;;;;;;5035526;28;20045;-75
2022/04/21 03:02:11;;;;;;;19.70;13.30;;;;;;;;;;5033051;28;20045;-75
2022/04/21 03:04:38;;;;;;;22.88;12.60;;;;;;;;;;5038475;28;20080;-75
2022/04/21 03:07:05;;;;;;;20.52;12.90;;;;;;;;;;5033203;28;20053;-75
2022/04/21 03:09:33;;;;;;;20.65;12.75;;;;;;;;;;5032996;28;20049;-75
2022/04/21 03:12:02;;;;;;;21.15;13.25;;;;;;;;;;5036896;28;20053;-75
2022/04/21 03:14:30;;;;;;;18.00;12.27;;;;;;;;;;5035221;28;20131;-75
2022/04/21 03:16:57;;;;;;;19.67;12.98;;;;;;;;;;5034183;28;20106;-75
2022/04/21 03:19:26;;;;;;;18.27;12.52;;;;;;;;;;5036938;28;20395;-75
2022/04/21 03:24:38;;;;;;;17.88;12.40;;;;;;;;;;5044309;28;20866;-75
2022/04/21 03:27:06;;;;;;;21.35;12.77;;;;;;;;;;5030211;28;20434;-75
2022/04/21 03:29:37;;;;;;;20.08;11.70;;;;;;;;;;5031279;28;20495;-75
2022/04/21 03:32:07;;;;;;;21.55;13.82;;;;;;;;;;5033214;28;21681;-75
2022/04/21 03:34:36;;;;;;;20.52;13.38;;;;;;;;;;5036590;28;20060;-75
2022/04/21 03:37:03;;;;;;;18.23;12.48;;;;;;;;;;5032117;28;20699;-75
2022/04/21 03:39:30;;;;;;;16.63;11.65;;;;;;;;;;5037699;28;20131;-75
2022/04/21 03:41:58;;;;;;;22.05;12.93;;;;;;;;;;5033492;28;20665;-75
2022/04/21 03:44:25;;;;;;;18.80;12.10;;;;;;;;;;5041880;28;20122;-75
2022/04/21 03:46:57;;;;;;;18.92;12.77;;;;;;;;;;5030309;28;20060;-75
2022/04/21 03:49:24;;;;;;;19.77;12.40;;;;;;;;;;5042050;28;20067;-75
2022/04/21 03:51:52;;;;;;;22.55;12.80;;;;;;;;;;5033245;28;20060;-75
2022/04/21 03:54:20;;;;;;;18.20;12.25;;;;;;;;;;5037623;28;20057;-75
2022/04/21 03:56:47;;;;;;;19.17;12.60;;;;;;;;;;5037050;28;20447;-75
2022/04/21 03:59:14;;;;;;;18.42;12.75;;;;;;;;;;5037704;28;20072;-75
2022/04/21 04:01:42;;;;;;;20.00;12.48;;;;;;;;;;5040480;28;20045;-75
2022/04/21 04:04:09;;;;;;;18.25;11.77;;;;;;;;;;5040858;28;20052;-75
2022/04/21 04:12:08;;;;;;;18.17;10.93;;;;;;;;;;5031648;28;20130;-75
2022/04/21 04:14:36;;;;;;;18.77;11.10;;;;;;;;;;5042266;28;20061;-75
2022/04/21 04:17:03;;;;;;;15.23;10.40;;;;;;;;;;5032217;28;20051;-75
2022/04/21 04:19:31;;;;;;;17.42;10.30;;;;;;;;;;5041785;28;20052;-75
2022/04/21 04:22:00;;;;;;;15.00;10.10;;;;;;;;;;5036179;28;20053;-75
2022/04/21 04:24:28;;;;;;;15.73;9.93;;;;;;;;;;5042398;28;20527;-75
2022/04/21 04:26:56;;;;;;;15.90;10.48;;;;;;;;;;5041690;28;20466;-75
2022/04/21 04:29:23;;;;;;;19.50;11.30;;;;;;;;;;5036980;28;20057;-75
2022/04/21 04:31:51;;;;;;;16.48;10.27;;;;;;;;;;5037696;28;20049;-75
2022/04/21 04:34:18;;;;;;;14.40;9.27;;;;;;;;;;5040774;28;20066;-75
2022/04/21 04:36:46;;;;;;;14.43;9.50;;;;;;;;;;5037459;28;20055;-75
2022/04/21 04:39:13;;;;;;;13.35;9.00;;;;;;;;;;5039043;28;21012;-75
2022/04/21 04:44:28;;;;;;;18.08;9.60;;;;;;;;;;5044405;28;20057;-75
2022/04/21 04:46:54;;;;;;;13.20;8.35;;;;;;;;;;5045634;28;20045;-75
2022/04/21 04:49:22;;;;;;;17.20;9.05;;;;;;;;;;5044641;28;20132;-75
2022/04/21 04:51:50;;;;;;;14.55;8.70;;;;;;;;;;5042151;28;20073;-75
2022/04/21 04:54:18;;;;;;;11.73;8.50;;;;;;;;;;5047815;28;20076;-75
2022/04/21 04:56:47;;;;;;;10.70;8.25;;;;;;;;;;5043075;28;20422;-75
2022/04/21 04:59:14;;;;;;;14.40;9.15;;;;;;;;;;5045655;28;20067;-75
2022/04/21 05:01:43;;;;;;;17.00;9.07;;;;;;;;;;5050400;28;20041;-75
2022/04/21 05:04:11;;;;;;;15.52;9.27;;;;;;;;;;5032722;28;20048;-75
2022/04/21 05:06:39;;;;;;;16.75;9.98;;;;;;;;;;5044139;28;20076;-75
2022/04/21 05:09:06;;;;;;;16.95;8.77;;;;;;;;;;5040818;28;20061;-75
2022/04/21 05:11:34;;;;;;;13.27;8.98;;;;;;;;;;5042420;28;20060;-75
2022/04/21 05:14:03;;;;;;;12.80;8.45;;;;;;;;;;5044837;28;20041;-75
2022/04/21 05:16:30;;;;;;;13.88;9.15;;;;;;;;;;5045150;28;20048;-75
2022/04/21 05:18:58;;;;;;;13.55;8.35;;;;;;;;;;5043954;28;20379;-75
2022/04/21 05:21:25;;;;;;;13.70;8.60;;;;;;;;;;5046167;28;20056;-75
2022/04/21 05:23:56;;;;;;;11.10;8.07;;;;;;;;;;5042048;28;20290;-75
2022/04/21 05:26:24;;;;;;;13.70;8.40;;;;;;;;;;5044940;28;20040;-75
2022/04/21 05:28:52;;;;;;;14.43;8.88;;;;;;;;;;5048156;28;20556;-75
2022/04/21 05:31:20;;;;;;;13.32;8.48;;;;;;;;;;5043732;28;20882;-75
2022/04/21 05:33:48;;;;;;;15.88;8.50;;;;;;;;;;5042273;28;20071;-75
2022/04/21 05:36:16;;;;;;;10.93;8.30;;;;;;;;;;5044884;28;20525;-75
2022/04/21 05:38:43;;;;;;;13.43;8.15;;;;;;;;;;5039523;28;20060;-75
2022/04/21 05:41:13;;;;;;;11.73;8.05;;;;;;;;;;5044044;28;20201;-75
2022/04/21 05:43:42;;;;;;;14.65;7.80;;;;;;;;;;5040367;28;20115;-75
2022/04/21 05:46:09;;;;;;;16.10;8.70;;;;;;;;;;5044551;28;20060;-75
2022/04/21 05:48:39;;;;;;;11.38;7.82;;;;;;;;;;5044624;28;20045;-75
2022/04/21 05:51:06;;;;;;;11.88;8.43;;;;;;;;;;5045282;28;20063;-75
2022/04/21 05:53:37;;;;;;;10.48;7.60;;;;;;;;;;5042757;28;21310;-75
2022/04/21 05:56:05;;;;;;;12.57;8.55;;;;;;;;;;5038110;28;20081;-75
2022/04/21 05:58:32;;;;;;;16.63;8.48;;;;;;;;;;5041553;28;20064;-75
2022/04/21 06:01:01;;;;;;;10.15;7.30;;;;;;;;;;5041413;28;20160;-75
2022/04/21 06:03:28;;;;;;;12.25;7.82;;;;;;;;;;5041907;28;20052;-75
2022/04/21 06:05:57;;;;;;;13.98;8.30;;;;;;;;;;5039835;28;20419;-75
2022/04/21 06:08:24;;;;;;;14.38;7.93;;;;;;;;;;5039340;28;20037;-75
2022/04/21 06:10:51;;;;;;;10.98;8.07;;;;;;;;;;5046998;28;20388;-75
2022/04/21 06:13:19;;;;;;;11.52;8.93;;;;;;;;;;5043142;28;20045;-75
2022/04/21 06:15:47;;;;;;;11.20;8.60;;;;;;;;;;5039382;28;20064;-75
2022/04/21 06:18:14;;;;;;;11.23;7.75;;;;;;;;;;5043694;28;21219;-75
2022/04/21 06:20:41;;;;;;;10.93;7.50;;;;;;;;;;5040514;28;20057;-75
2022/04/21 06:23:10;;;;;;;12.48;8.00;;;;;;;;;;5037989;28;20499;-75
2022/04/21 06:25:37;;;;;;;9.68;7.65;;;;;;;;;;5038353;28;20076;-75
2022/04/21 06:28:05;;;;;;;10.85;7.45;;;;;;;;;;5041998;28;20048;-75
2022/04/21 06:30:33;;;;;;;11.82;7.55;;;;;;;;;;5038038;28;20049;-75
2022/04/21 06:33:00;;;;;;;10.38;7.30;;;;;;;;;;5044168;28;20057;-75
2022/04/21 06:35:27;;;;;;;14.38;7.78;;;;;;;;;;5041746;28;20057;-75
2022/04/21 06:37:57;;;;;;;13.77;7.60;;;;;;;;;;5036129;28;20523;-76
2022/04/21 06:40:26;;;;;;;10.65;6.88;;;;;;;;;;5037877;28;20167;-76
2022/04/21 06:42:53;;;;;;;10.98;7.03;;;;;;;;;;5038467;28;20068;-76
2022/04/21 06:48:06;;;;;;;9.45;7.25;;;;;;;;;;5042353;28;20060;-75
2022/04/21 06:50:34;;;;;;;10.40;7.03;;;;;;;;;;5041527;28;20633;-75
2022/04/21 06:53:01;;;;;;;11.82;8.13;;;;;;;;;;5033557;28;20265;-75
2022/04/21 06:55:30;;;;;;;17.60;8.20;;;;;;;;;;5042062;28;20415;-76
2022/04/21 06:57:57;;;;;;;14.05;9.13;;;;;;;;;;5039848;28;20053;-75
2022/04/21 07:00:26;;;;;;;13.98;8.07;;;;;;;;;;5037811;28;20053;-75
2022/04/21 07:02:54;;;;;;;13.75;8.25;;;;;;;;;;5041196;28;20134;-75
2022/04/21 07:05:23;;;;;;;10.75;8.05;;;;;;;;;;5040964;28;20048;-75
2022/04/21 07:07:50;;;;;;;13.20;8.35;;;;;;;;;;5035658;28;20044;-76
2022/04/21 07:10:18;;;;;;;11.55;7.63;;;;;;;;;;5039423;28;20152;-76
2022/04/21 07:12:47;;;;;;;13.07;8.07;;;;;;;;;;5039550;28;20057;-75
2022/04/21 07:15:15;;;;;;;11.93;6.47;;;;;;;;;;5041381;28;20388;-76
2022/04/21 07:17:42;;;;;;;10.48;7.10;;;;;;;;;;5041099;28;20050;-76
2022/04/21 07:20:10;;;;;;;11.50;6.18;;;;;;;;;;5040014;28;20057;-76
2022/04/21 07:22:37;;;;;;;11.77;6.70;;;;;;;;;;5035370;28;20061;-76
2022/04/21 07:25:05;;;;;;;10.48;5.82;;;;;;;;;;5036479;28;20077;-76
2022/04/21 07:27:33;;;;;;;9.32;5.22;;;;;;;;;;5041993;28;20507;-76
2022/04/21 07:30:02;;;;;;;9.13;4.82;;;;;;;;;;5040375;28;20049;-75
2022/04/21 07:32:29;;;;;;;7.00;4.53;;;;;;;;;;5043587;28;20045;-76
2022/04/21 07:34:56;;;;;;;7.43;4.18;;;;;;;;;;5041361;28;20052;-76
2022/04/21 07:37:24;;;;;;;10.75;4.50;;;;;;;;;;5045032;28;20988;-76
2022/04/21 07:39:51;;;;;;;9.27;5.03;;;;;;;;;;5056169;28;20143;-76
2022/04/21 07:42:18;;;;;;;8.85;4.85;;;;;;;;;;5031552;28;20413;-76
2022/04/21 07:44:45;;;;;;;7.63;4.28;;;;;;;;;;5047255;28;20500;-76
2022/04/21 07:47:14;;;;;;;5.78;4.00;;;;;;;;;;5038427;28;20063;-77
2022/04/21 07:49:48;;;;;;;5.70;3.55;;;;;;;;;;5043625;28;20055;-77
2022/04/21 07:55:15;;;;;;;4.60;2.97;;;;;;;;;;5038763;28;20052;-77
2022/04/21 07:57:43;;;;;;;6.47;3.28;;;;;;;;;;5036047;28;20083;-77
2022/04/21 08:00:11;;;;;;;6.20;2.58;;;;;;;;;;5034192;28;20522;-77
2022/04/21 08:02:41;;;;;;;3.60;2.20;;;;;;;;;;5041013;28;20513;-77
2022/04/21 08:05:09;;;;;;;4.75;2.47;;;;;;;;;;5039389;28;20066;-77
2022/04/21 08:07:36;;;;;;;3.85;2.35;;;;;;;;;;5041975;28;20045;-77
2022/04/21 08:10:03;;;;;;;3.42;2.17;;;;;;;;;;5030580;28;20049;-75
2022/04/21 08:12:39;;;;;;;6.45;2.40;;;;;;;;;;5038189;28;20049;-75
2022/04/21 08:15:07;;;;;;;3.17;2.25;;;;;;;;;;5038744;28;20396;-76
2022/04/21 08:17:36;;;;;;;5.55;2.15;;;;;;;;;;5042628;28;20044;-76
2022/04/21 08:20:05;;;;;;;5.43;2.17;;;;;;;;;;5045826;28;20521;-75
2022/04/21 08:22:32;;;;;;;5.43;2.20;;;;;;;;;;5043429;28;20587;-76
2022/04/21 08:33:16;;;;;;;4.63;2.22;;;;;;;;;;5040541;28;20072;-76
2022/04/21 08:35:45;;;;;;;3.83;2.25;;;;;;;;;;5046656;28;20123;-76
2022/04/21 08:38:12;;;;;;;5.43;2.10;;;;;;;;;;5041901;28;20056;-76
2022/04/21 08:40:43;;;;;;;4.25;2.40;;;;;;;;;;5046267;28;20424;-76
2022/04/21 08:43:16;;;;;;;8.38;2.72;;;;;;;;;;5044234;28;20571;-76
2022/04/21 08:45:44;;;;;;;5.72;2.63;;;;;;;;;;5042222;28;20095;-76
2022/04/21 08:48:12;;;;;;;3.42;2.20;;;;;;;;;;5038170;28;20045;-76
2022/04/21 08:50:40;;;;;;;5.53;2.20;;;;;;;;;;5041943;28;20053;-76
2022/04/21 08:53:09;;;;;;;5.20;2.50;;;;;;;;;;5044016;28;20056;-76
2022/04/21 08:55:37;;;;;;;3.33;2.38;;;;;;;;;;5040094;28;20044;-76
2022/04/21 08:58:04;;;;;;;3.78;2.42;;;;;;;;;;5041633;28;20057;-76
2022/04/21 09:00:32;;;;;;;3.83;2.45;;;;;;;;;;5045402;28;20049;-76
2022/04/21 09:02:59;;;;;;;4.70;2.22;;;;;;;;;;5045774;28;20203;-76
2022/04/21 09:05:28;;;;;;;5.75;2.05;;;;;;;;;;5043546;28;20057;-76
2022/04/21 09:07:56;;;;;;;5.55;1.98;;;;;;;;;;5037704;28;20041;-76
2022/04/21 09:10:25;;;;;;;2.92;1.98;;;;;;;;;;5042145;28;20359;-76
2022/04/21 09:12:55;;;;;;;6.68;2.15;;;;;;;;;;5044218;28;20067;-76
2022/04/21 09:15:23;;;;;;;4.43;2.15;;;;;;;;;;5042363;28;20183;-76
2022/04/21 09:17:52;;;;;;;5.13;2.00;;;;;;;;;;5047244;28;20049;-76
2022/04/21 09:20:20;;;;;;;2.58;1.70;;;;;;;;;;5037726;28;20131;-76
2022/04/21 09:22:54;;;;;;;4.70;1.77;;;;;;;;;;5046936;28;20143;-76
2022/04/21 09:25:23;;;;;;;3.97;1.80;;;;;;;;;;5035450;28;20432;-76
2022/04/21 09:27:52;;;;;;;5.55;1.67;;;;;;;;;;5039547;28;20132;-76
2022/04/21 09:30:19;;;;;;;3.35;1.73;;;;;;;;;;5041104;28;20049;-76
2022/04/21 09:32:54;;;;;;;4.30;2.00;;;;;;;;;;5036135;28;20061;-76
2022/04/21 09:35:21;;;;;;;4.22;2.40;;;;;;;;;;5044371;28;20056;-76
2022/04/21 09:37:49;;;;;;;4.50;2.10;;;;;;;;;;5038465;28;20053;-76
2022/04/21 09:40:17;;;;;;;5.13;2.30;;;;;;;;;;5044038;28;20399;-76
2022/04/21 09:42:45;;;;;;;3.95;2.00;;;;;;;;;;5036128;28;20110;-76
2022/04/21 09:48:02;;;;;;;3.30;1.90;;;;;;;;;;5039142;28;20046;-77
2022/04/21 09:50:33;;;;;;;5.15;2.38;;;;;;;;;;5045427;28;20060;-76
2022/04/21 09:53:04;;;;;;;4.97;1.98;;;;;;;;;;5046351;28;20135;-77
2022/04/21 09:55:32;;;;;;;4.45;2.33;;;;;;;;;;5039749;28;20061;-77
2022/04/21 09:58:06;;;;;;;6.75;2.30;;;;;;;;;;5035223;28;20073;-76
2022/04/21 10:00:35;;;;;;;5.13;2.60;;;;;;;;;;5039941;28;20045;-77
2022/04/21 10:03:03;;;;;;;4.85;2.20;;;;;;;;;;5044512;28;20049;-77
2022/04/21 10:05:31;;;;;;;2.67;2.00;;;;;;;;;;5041303;28;20441;-77
2022/04/21 10:08:01;;;;;;;6.05;2.40;;;;;;;;;;5042569;28;20127;-77
2022/04/21 10:10:30;;;;;;;7.57;2.47;;;;;;;;;;5042910;28;20135;-77
2022/04/21 10:12:57;;;;;;;6.40;2.03;;;;;;;;;;5042987;28;20061;-76
2022/04/21 10:15:25;;;;;;;2.83;1.73;;;;;;;;;;5040650;28;20049;-77
2022/04/21 10:17:54;;;;;;;5.20;2.00;;;;;;;;;;5040011;28;20052;-77
2022/04/21 10:20:22;;;;;;;4.05;1.85;;;;;;;;;;5043166;28;20056;-77
2022/04/21 10:22:50;;;;;;;3.03;1.98;;;;;;;;;;5042889;28;20077;-77
2022/04/21 10:25:18;;;;;;;5.05;1.80;;;;;;;;;;5044894;28;20061;-77
2022/04/21 10:27:47;;;;;;;12.07;2.20;;;;;;;;;;5042862;28;20055;-77
2022/04/21 10:30:16;;;;;;;8.23;2.03;;;;;;;;;;5043079;28;20059;-77
2022/04/21 10:32:47;;;;;;;2.78;2.00;;;;;;;;;;5046213;28;20045;-77
2022/04/21 10:35:33;;;;;;;5.40;1.90;;;;;;;;;;5046008;28;20052;-77
2022/04/21 10:38:16;;;;;;;15.90;2.28;;;;;;;;;;5040851;28;20072;-77
2022/04/21 10:40:56;;;;;;;3.53;1.73;;;;;;;;;;5042219;28;20057;-77
2022/04/21 10:43:24;;;;;;;6.55;2.00;;;;;;;;;;5037450;28;20739;-77
2022/04/21 10:46:04;;;;;;;5.05;1.90;;;;;;;;;;5042657;28;20063;-77
2022/04/21 10:48:41;;;;;;;2.92;1.83;;;;;;;;;;5053676;28;20675;-77
2022/04/21 10:51:09;;;;;;;7.55;2.10;;;;;;;;;;5040842;28;20383;-77
2022/04/21 10:59:25;;;;;;;4.20;1.90;;;;;;;;;;5034712;28;20053;-77
2022/04/21 11:01:56;;;;;;;9.63;2.22;;;;;;;;;;5042016;28;20048;-77
2022/04/21 11:04:25;;;;;;;5.57;1.98;;;;;;;;;;5041875;28;20432;-77
2022/04/21 11:06:54;;;;;;;6.00;2.22;;;;;;;;;;5043868;28;20562;-77
2022/04/21 11:09:38;;;;;;;3.55;2.20;;;;;;;;;;5039232;28;20056;-77
2022/04/21 11:12:07;;;;;;;6.15;1.95;;;;;;;;;;5044233;28;20542;-77
2022/04/21 11:14:36;;;;;;;8.18;2.40;;;;;;;;;;5043310;28;20053;-77
2022/04/21 11:17:04;;;;;;;4.85;2.55;;;;;;;;;;5044559;28;20141;-77
2022/04/21 11:19:32;;;;;;;5.00;2.03;;;;;;;;;;5045723;28;20476;-78
2022/04/21 11:22:00;;;;;;;5.05;2.20;;;;;;;;;;5036110;28;20154;-77
2022/04/21 11:24:28;;;;;;;25.92;2.63;;;;;;;;;;5035109;28;20416;-77
2022/04/21 11:26:55;;;;;;;4.40;2.17;;;;;;;;;;5040070;28;20052;-78
2022/04/21 11:29:24;;;;;;;5.95;1.98;;;;;;;;;;5036207;28;20053;-78
2022/04/21 11:31:55;;;;;;;7.05;1.92;;;;;;;;;;5037809;28;20063;-78
2022/04/21 11:34:23;;;;;;;6.38;2.00;;;;;;;;;;5039551;28;20060;-78
2022/04/21 11:36:50;;;;;;;11.13;2.45;;;;;;;;;;5041620;28;20052;-78
2022/04/21 11:39:17;;;;;;;12.70;2.28;;;;;;;;;;5041332;28;20523;-78
2022/04/21 11:41:47;;;;;;;7.47;2.42;;;;;;;;;;5038240;28;20052;-78
2022/04/21 11:44:20;;;;;;;5.28;1.90;;;;;;;;;;5037874;28;20076;-77
2022/04/21 11:46:49;;;;;;;6.57;2.03;;;;;;;;;;5034524;28;20557;-78
2022/04/21 11:49:16;;;;;;;3.72;2.15;;;;;;;;;;5041478;28;20049;-78
2022/04/21 11:51:44;;;;;;;3.30;2.10;;;;;;;;;;5040619;28;20596;-78
2022/04/21 11:54:12;;;;;;;3.65;2.13;;;;;;;;;;5041206;28;20515;-78
2022/04/21 11:56:40;;;;;;;9.88;2.40;;;;;;;;;;5038125;28;20056;-78
2022/04/21 11:59:08;;;;;;;5.05;2.22;;;;;;;;;;5036685;28;20061;-78
2022/04/21 12:07:16;;;;;;;3.08;2.20;;;;;;;;;;5041548;28;20126;-78
2022/04/21 12:09:46;;;;;;;5.47;2.30;;;;;;;;;;5043427;28;20037;-78
2022/04/21 12:12:15;;;;;;;4.65;2.22;;;;;;;;;;5037208;28;20499;-77
2022/04/21 12:14:43;;;;;;;7.00;2.10;;;;;;;;;;5040434;28;20103;-77
2022/04/21 12:17:12;;;;;;;3.88;2.13;;;;;;;;;;5035171;28;20057;-78
2022/04/21 12:19:42;;;;;;;5.80;2.10;;;;;;;;;;5041092;28;20053;-78
2022/04/21 12:22:10;;;;;;;11.30;2.05;;;;;;;;;;5040212;28;20053;-77
2022/04/21 12:24:38;;;;;;;3.83;1.60;;;;;;;;;;5042660;28;20060;-78
2022/04/21 12:27:06;;;;;;;9.38;2.22;;;;;;;;;;5038910;28;20060;-78
2022/04/21 12:29:48;;;;;;;5.47;2.03;;;;;;;;;;5038106;28;21194;-78
2022/04/21 12:32:17;;;;;;;8.32;2.10;;;;;;;;;;5040240;28;20064;-78
2022/04/21 12:34:46;;;;;;;6.25;1.95;;;;;;;;;;5040951;28;20056;-78
2022/04/21 12:37:14;;;;;;;4.15;2.00;;;;;;;;;;5042351;28;20072;-78
2022/04/21 12:39:41;;;;;;;10.75;2.00;;;;;;;;;;5036928;28;20384;-78
2022/04/21 12:42:09;;;;;;;14.02;2.70;;;;;;;;;;5033054;28;20076;-77
2022/04/21 12:44:36;;;;;;;4.32;1.65;;;;;;;;;;5042744;28;20479;-78
2022/04/21 12:47:05;;;;;;;5.65;1.90;;;;;;;;;;5035176;28;20053;-78
2022/04/21 12:49:53;;;;;;;7.05;1.90;;;;;;;;;;5042614;28;20041;-78
2022/04/21 12:52:31;;;;;;;4.18;1.80;;;;;;;;;;5039772;28;20074;-78
2022/04/21 12:54:58;;;;;;;5.68;1.90;;;;;;;;;;5043874;28;20388;-78
2022/04/21 12:57:26;;;;;;;3.80;1.65;;;;;;;;;;5037529;28;20057;-78
2022/04/21 12:59:54;;;;;;;3.92;2.00;;;;;;;;;;5036473;28;20509;-78
2022/04/21 13:02:21;;;;;;;6.10;1.75;;;;;;;;;;5039716;28;20059;-78
2022/04/21 13:04:48;;;;;;;7.50;1.80;;;;;;;;;;5041022;28;20561;-78
2022/04/21 13:07:17;;;;;;;2.13;1.70;;;;;;;;;;5042124;28;20086;-78
2022/04/21 13:09:44;;;;;;;4.32;1.90;;;;;;;;;;5047064;28;20136;-78
2022/04/21 13:12:12;;;;;;;3.83;1.70;;;;;;;;;;5046798;28;20500;-78
2022/04/21 13:14:39;;;;;;;3.13;1.52;;;;;;;;;;5042571;28;20411;-77
2022/04/21 13:17:07;;;;;;;3.33;1.80;;;;;;;;;;5043474;28;20408;-78
2022/04/21 13:19:34;;;;;;;5.70;2.00;;;;;;;;;;5041713;28;20056;-78
2022/04/21 13:22:02;;;;;;;5.03;1.70;;;;;;;;;;5042103;28;20091;-78
2022/04/21 13:24:31;;;;;;;3.72;1.63;;;;;;;;;;5041299;28;20633;-78
2022/04/21 13:26:58;;;;;;;3.33;1.60;;;;;;;;;;5041973;28;20041;-78
2022/04/21 13:29:27;;;;;;;4.35;1.80;;;;;;;;;;5039940;28;20104;-78
2022/04/21 13:34:39;;;;;;;2.45;1.70;;;;;;;;;;5045284;28;20395;-78
2022/04/21 13:37:06;;;;;;;3.15;1.83;;;;;;;;;;5040272;28;20060;-78
2022/04/21 13:39:36;;;;;;;3.90;1.77;;;;;;;;;;5043004;28;20053;-78
2022/04/21 13:42:03;;;;;;;8.30;2.17;;;;;;;;;;5040165;28;20107;-78
2022/04/21 13:44:31;;;;;;;5.07;1.60;;;;;;;;;;5040249;28;20179;-78
2022/04/21 13:46:58;;;;;;;5.38;1.90;;;;;;;;;;5040101;28;20064;-78
2022/04/21 13:49:26;;;;;;;8.13;1.70;;;;;;;;;;5046759;28;20104;-78
2022/04/21 13:51:53;;;;;;;4.78;1.83;;;;;;;;;;5044749;28;20057;-78
2022/04/21 13:54:21;;;;;;;4.65;2.30;;;;;;;;;;5049591;28;20049;-78
2022/04/21 13:56:50;;;;;;;2.88;1.70;;;;;;;;;;5049290;28;20068;-78
2022/04/21 13:59:17;;;;;;;3.08;1.77;;;;;;;;;;5040982;28;20107;-78
2022/04/21 14:01:45;;;;;;;5.82;2.00;;;;;;;;;;5044537;28;20549;-78
2022/04/21 14:04:12;;;;;;;3.58;1.90;;;;;;;;;;5042385;28;20419;-77
2022/04/21 14:06:39;;;;;;;6.00;1.80;;;;;;;;;;5051528;28;20053;-77
2022/04/21 14:09:08;;;;;;;8.10;2.00;;;;;;;;;;5039286;28;20041;-77
2022/04/21 14:11:36;;;;;;;4.93;2.10;;;;;;;;;;5039423;28;20057;-77
2022/04/21 14:14:05;;;;;;;4.32;2.17;;;;;;;;;;5041323;28;20114;-77
2022/04/21 14:16:33;;;;;;;6.88;1.67;;;;;;;;;;5042972;28;20423;-78
2022/04/21 14:19:00;;;;;;;4.25;1.83;;;;;;;;;;5046755;28;20137;-78
2022/04/21 14:21:27;;;;;;;5.20;1.95;;;;;;;;;;5043069;28;20048;-78
2022/04/21 14:23:54;;;;;;;6.07;2.10;;;;;;;;;;5038314;28;20060;-77
2022/04/21 14:26:22;;;;;;;5.05;1.80;;;;;;;;;;5044234;28;20143;-78
2022/04/21 14:28:49;;;;;;;6.40;2.10;;;;;;;;;;5043861;28;20472;-77
2022/04/21 14:31:17;;;;;;;4.80;2.22;;;;;;;;;;5045188;28;20537;-77
2022/04/21 14:33:45;;;;;;;3.53;2.13;;;;;;;;;;5042752;28;20491;-77
2022/04/21 14:36:13;;;;;;;3.50;2.10;;;;;;;;;;5046485;28;20056;-78
2022/04/21 14:44:11;;;;;;;5.50;2.00;;;;;;;;;;5045624;28;20080;-78
2022/04/21 14:46:43;;;;;;;7.43;2.20;;;;;;;;;;5041919;28;20925;-78
2022/04/21 14:49:10;;;;;;;5.05;2.03;;;;;;;;;;5045959;28;20731;-78
2022/04/21 14:51:38;;;;;;;4.10;2.20;;;;;;;;;;5042883;28;20145;-78
2022/04/21 14:54:06;;;;;;;4.22;2.40;;;;;;;;;;5042860;28;20049;-78
2022/04/21 14:56:35;;;;;;;2.63;1.92;;;;;;;;;;5043349;28;20103;-78
2022/04/21 14:59:03;;;;;;;4.45;2.13;;;;;;;;;;5037804;28;20091;-78
2022/04/21 15:01:30;;;;;;;10.57;2.30;;;;;;;;;;5038336;28;20056;-78
2022/04/21 15:03:59;;;;;;;5.32;2.47;;;;;;;;;;5037312;28;20055;-78
2022/04/21 15:06:26;;;;;;;3.30;2.30;;;;;;;;;;5038076;28;20053;-78
2022/04/21 15:08:53;;;;;;;4.43;2.30;;;;;;;;;;5035142;28;20051;-78
2022/04/21 15:11:20;;;;;;;4.07;2.72;;;;;;;;;;5031490;28;20136;-78
2022/04/21 15:13:48;;;;;;;6.57;2.53;;;;;;;;;;5040086;28;20488;-78
2022/04/21 15:16:15;;;;;;;5.10;2.35;;;;;;;;;;5041698;28;20055;-77
2022/04/21 15:18:42;;;;;;;4.25;2.75;;;;;;;;;;5039619;28;20063;-78
2022/04/21 15:21:11;;;;;;;3.92;2.60;;;;;;;;;;5041403;28;20044;-78
2022/04/21 15:23:38;;;;;;;4.38;2.88;;;;;;;;;;5037650;28;20060;-77
2022/04/21 15:26:06;;;;;;;4.88;2.67;;;;;;;;;;5037243;28;20357;-78
2022/04/21 15:28:33;;;;;;;5.38;2.70;;;;;;;;;;5033403;28;20048;-78
2022/04/21 15:31:05;;;;;;;4.18;2.60;;;;;;;;;;5037075;28;20049;-77
2022/04/21 15:33:32;;;;;;;3.15;2.50;;;;;;;;;;5038182;28;20060;-77
2022/04/21 15:36:00;;;;;;;3.80;2.30;;;;;;;;;;5038692;28;20054;-77
2022/04/21 15:38:29;;;;;;;4.75;2.50;;;;;;;;;;5042538;28;20057;-77
2022/04/21 15:40:56;;;;;;;4.20;2.80;;;;;;;;;;5033226;28;20470;-77